createdAt,value
2019-03-27T00:01:12.002Z,9.67
2019-03-27T00:04:16.379Z,9.70
2019-03-27T00:07:21.061Z,9.73
2019-03-27T00:10:25.482Z,10.43
2019-03-27T00:13:30.586Z,10.77
2019-03-27T00:16:35.069Z,10.50
2019-03-27T00:19:39.828Z,9.30
2019-03-27T00:22:44.499Z,9.90
2019-03-27T00:25:49.125Z,10.47
2019-03-27T00:28:53.702Z,9.70
2019-03-27T00:31:58.535Z,10.37
2019-03-27T00:35:03.202Z,10.90
2019-03-27T00:38:07.784Z,10.80
2019-03-27T00:41:12.381Z,10.00
2019-03-27T00:44:17.087Z,10.53
2019-03-27T00:47:22.016Z,9.67
2019-03-27T00:50:26.844Z,10.13
2019-03-27T00:53:31.383Z,9.80
2019-03-27T00:56:36.308Z,9.97
2019-03-27T00:59:41.143Z,10.77
2019-03-27T01:02:46.917Z,9.80
2019-03-27T01:05:52.238Z,10.60
2019-03-27T01:08:57.513Z,10.67
2019-03-27T01:12:02.312Z,9.30
2019-03-27T01:15:07.356Z,9.70
2019-03-27T01:18:11.745Z,10.07
2019-03-27T01:21:16.509Z,9.70
2019-03-27T01:24:21.035Z,10.30
2019-03-27T01:27:25.375Z,11.00
2019-03-27T01:30:29.825Z,10.50
2019-03-27T01:33:35.859Z,10.23
2019-03-27T01:36:40.589Z,10.67
2019-03-27T01:39:45.114Z,10.73
2019-03-27T01:42:49.535Z,11.27
2019-03-27T01:45:53.960Z,11.07
2019-03-27T01:48:58.676Z,10.83
2019-03-27T01:52:03.768Z,10.40
2019-03-27T01:55:09.193Z,11.27
2019-03-27T01:58:13.997Z,9.93
2019-03-27T02:01:18.595Z,11.73
2019-03-27T02:04:23.264Z,10.60
2019-03-27T02:07:28.005Z,10.30
2019-03-27T02:10:32.480Z,9.73
2019-03-27T02:13:36.931Z,10.03
2019-03-27T02:16:41.440Z,10.00
2019-03-27T02:19:46.290Z,10.43
2019-03-27T02:22:51.114Z,10.77
2019-03-27T02:25:55.597Z,9.73
2019-03-27T02:29:00.310Z,9.73
2019-03-27T02:32:04.837Z,10.30
2019-03-27T02:35:09.599Z,10.63
2019-03-27T02:38:14.292Z,10.00
2019-03-27T02:41:18.767Z,10.00
2019-03-27T02:44:23.466Z,10.57
2019-03-27T02:47:28.331Z,9.77
2019-03-27T02:50:32.838Z,11.07
2019-03-27T02:53:37.258Z,11.10
2019-03-27T02:56:41.905Z,10.17
2019-03-27T02:59:46.332Z,10.37
2019-03-27T03:02:53.250Z,9.30
2019-03-27T03:05:57.741Z,10.77
2019-03-27T03:09:03.193Z,11.13
2019-03-27T03:12:07.754Z,11.37
2019-03-27T03:15:12.888Z,10.33
2019-03-27T03:18:17.767Z,10.70
2019-03-27T03:21:22.180Z,10.63
2019-03-27T03:24:30.208Z,11.50
2019-03-27T03:27:34.709Z,11.40
2019-03-27T03:30:39.171Z,11.53
2019-03-27T03:33:44.634Z,11.53
2019-03-27T03:36:49.138Z,11.83
2019-03-27T03:39:54.393Z,11.87
2019-03-27T03:42:59.428Z,11.97
2019-03-27T03:46:04.196Z,11.70
2019-03-27T03:49:08.982Z,12.13
2019-03-27T03:52:17.445Z,12.17
2019-03-27T03:55:21.927Z,11.63
2019-03-27T03:58:29.075Z,12.13
2019-03-27T04:01:35.747Z,11.50
2019-03-27T04:04:41.768Z,11.87
2019-03-27T04:07:46.409Z,12.07
2019-03-27T04:10:50.920Z,11.73
2019-03-27T04:13:55.974Z,12.07
2019-03-27T04:17:16.243Z,11.00
2019-03-27T04:20:07.860Z,12.90
2019-03-27T04:23:12.560Z,11.83
2019-03-27T04:26:17.046Z,12.67
2019-03-27T04:29:21.572Z,12.63
2019-03-27T04:32:26.399Z,12.53
2019-03-27T04:35:31.232Z,12.10
2019-03-27T04:38:35.923Z,12.37
2019-03-27T04:41:40.676Z,12.97
2019-03-27T04:44:45.255Z,11.77
2019-03-27T04:47:49.666Z,12.47
2019-03-27T04:50:55.137Z,11.83
2019-03-27T04:53:59.609Z,12.50
2019-03-27T04:57:04.126Z,11.77
2019-03-27T05:00:12.532Z,12.47
2019-03-27T05:03:16.935Z,11.73
2019-03-27T05:06:21.346Z,12.07
2019-03-27T05:09:26.107Z,12.53
2019-03-27T05:12:32.092Z,12.33
2019-03-27T05:15:36.717Z,12.20
2019-03-27T05:18:41.244Z,13.43
2019-03-27T05:21:45.855Z,11.67
2019-03-27T05:24:50.570Z,13.00
2019-03-27T05:27:55.114Z,11.73
2019-03-27T05:30:59.877Z,12.80
2019-03-27T05:34:04.522Z,12.23
2019-03-27T05:37:08.993Z,11.20
2019-03-27T05:40:13.553Z,13.13
2019-03-27T05:43:18.435Z,14.03
2019-03-27T05:46:26.378Z,13.47
2019-03-27T05:49:29.331Z,12.30
2019-03-27T05:52:33.733Z,13.63
2019-03-27T05:55:38.184Z,12.87
2019-03-27T05:58:43.668Z,13.60
2019-03-27T06:01:48.164Z,13.87
2019-03-27T06:04:52.628Z,12.20
2019-03-27T06:07:57.043Z,13.10
2019-03-27T06:11:02.595Z,13.63
2019-03-27T06:14:08.345Z,13.33
2019-03-27T06:17:12.806Z,13.50
2019-03-27T06:20:17.318Z,13.87
2019-03-27T06:23:22.087Z,14.10
2019-03-27T06:26:26.634Z,15.20
2019-03-27T06:29:31.243Z,15.23
2019-03-27T06:32:38.956Z,15.73
2019-03-27T06:35:43.531Z,16.00
2019-03-27T06:38:47.998Z,14.53
2019-03-27T06:41:53.222Z,15.43
2019-03-27T06:44:57.901Z,15.70
2019-03-27T06:48:02.971Z,18.40
2019-03-27T06:51:07.758Z,15.13
2019-03-27T06:54:12.309Z,15.17
2019-03-27T06:57:17.027Z,15.50
2019-03-27T07:00:32.600Z,15.37
2019-03-27T07:03:37.082Z,17.00
2019-03-27T07:06:41.554Z,17.20
2019-03-27T07:09:46.087Z,16.67
2019-03-27T07:12:50.785Z,16.73
2019-03-27T07:15:55.372Z,18.13
2019-03-27T07:18:59.815Z,19.43
2019-03-27T07:22:04.507Z,19.03
2019-03-27T07:25:10.122Z,18.73
2019-03-27T07:28:14.642Z,18.80
2019-03-27T07:31:19.480Z,19.70
2019-03-27T07:34:24.058Z,19.97
2019-03-27T07:37:28.842Z,20.23
2019-03-27T07:40:33.282Z,18.53
2019-03-27T07:43:38.120Z,18.03
2019-03-27T07:46:42.545Z,19.60
2019-03-27T07:49:47.789Z,18.93
2019-03-27T07:52:52.280Z,19.53
2019-03-27T07:55:56.790Z,19.57
2019-03-27T07:59:01.342Z,17.90
2019-03-27T08:02:06.096Z,18.53
2019-03-27T08:05:11.409Z,18.43
2019-03-27T08:08:16.011Z,18.37
2019-03-27T08:11:20.651Z,17.07
2019-03-27T08:14:25.417Z,18.13
2019-03-27T08:17:29.925Z,17.73
2019-03-27T08:20:34.477Z,17.63
2019-03-27T08:23:39.004Z,17.33
2019-03-27T08:26:43.464Z,18.00
2019-03-27T08:29:50.918Z,17.03
2019-03-27T08:32:55.431Z,16.13
2019-03-27T08:35:59.965Z,16.63
2019-03-27T08:39:07.113Z,16.47
2019-03-27T08:42:11.440Z,15.43
2019-03-27T08:45:16.144Z,14.00
2019-03-27T08:48:20.871Z,14.27
2019-03-27T08:51:25.445Z,13.47
2019-03-27T08:54:29.954Z,14.57
2019-03-27T08:57:34.397Z,14.77
2019-03-27T09:00:50.011Z,12.40
2019-03-27T09:03:54.459Z,14.13
2019-03-27T09:06:59.208Z,13.70
2019-03-27T09:10:04.612Z,13.00
2019-03-27T09:13:09.059Z,9.67
2019-03-27T09:16:14.948Z,8.10
2019-03-27T09:19:19.690Z,8.70
2019-03-27T09:22:24.544Z,7.97
2019-03-27T09:25:29.522Z,7.87
2019-03-27T09:28:34.022Z,8.67
2019-03-27T09:31:44.694Z,7.77
2019-03-27T09:34:44.901Z,7.73
2019-03-27T09:37:50.045Z,8.50
2019-03-27T09:40:54.518Z,7.43
2019-03-27T09:43:59.312Z,7.87
2019-03-27T09:47:03.901Z,6.53
2019-03-27T09:50:09.614Z,7.23
2019-03-27T09:53:14.151Z,7.47
2019-03-27T09:56:19.737Z,8.37
2019-03-27T09:59:24.706Z,7.73
2019-03-27T10:02:29.147Z,6.37
2019-03-27T10:05:33.597Z,6.07
2019-03-27T10:08:38.310Z,5.93
2019-03-27T10:11:42.793Z,6.27
2019-03-27T10:14:47.835Z,6.10
2019-03-27T10:17:52.301Z,5.20
2019-03-27T10:20:56.796Z,4.90
2019-03-27T10:24:01.908Z,5.53
2019-03-27T10:27:06.729Z,5.00
2019-03-27T10:30:11.885Z,5.30
2019-03-27T10:33:16.472Z,4.97
2019-03-27T10:36:21.672Z,4.60
2019-03-27T10:39:26.312Z,4.93
2019-03-27T10:42:30.783Z,6.40
2019-03-27T10:45:36.205Z,6.33
2019-03-27T10:48:51.821Z,5.93
2019-03-27T10:51:47.745Z,5.63
2019-03-27T10:54:52.250Z,5.70
2019-03-27T10:57:57.125Z,5.07
2019-03-27T11:01:01.641Z,4.70
2019-03-27T11:04:06.283Z,4.87
2019-03-27T11:07:10.829Z,5.03
2019-03-27T11:10:15.703Z,5.40
2019-03-27T11:13:23.315Z,4.90
2019-03-27T11:16:28.118Z,5.17
2019-03-27T11:19:33.660Z,5.80
2019-03-27T11:22:38.631Z,6.33
2019-03-27T11:25:43.514Z,6.40
2019-03-27T11:28:48.182Z,5.40
2019-03-27T11:31:52.821Z,5.77
2019-03-27T11:34:57.763Z,6.80
2019-03-27T11:38:04.274Z,6.03
2019-03-27T11:41:12.210Z,6.80
2019-03-27T11:44:16.076Z,6.60
2019-03-27T11:47:20.613Z,6.73
2019-03-27T11:50:26.033Z,5.77
2019-03-27T11:53:30.579Z,6.10
2019-03-27T11:56:35.033Z,5.63
2019-03-27T11:59:52.885Z,4.70
2019-03-27T12:02:45.786Z,4.97
2019-03-27T12:05:50.610Z,4.37
2019-03-27T12:08:55.354Z,4.10
2019-03-27T12:12:01.437Z,5.07
2019-03-27T12:15:07.502Z,5.03
2019-03-27T12:18:14.243Z,5.03
2019-03-27T12:21:18.946Z,4.67
2019-03-27T12:24:23.262Z,3.10
2019-03-27T12:27:27.822Z,3.67
2019-03-27T12:30:32.449Z,3.97
2019-03-27T12:33:38.467Z,3.90
2019-03-27T12:36:42.814Z,3.83
2019-03-27T12:39:47.237Z,3.83
2019-03-27T12:42:52.326Z,3.90
2019-03-27T12:45:57.110Z,3.33
2019-03-27T12:49:01.787Z,3.47
2019-03-27T12:52:06.421Z,4.00
2019-03-27T12:55:11.130Z,4.37
2019-03-27T12:58:15.717Z,4.27
2019-03-27T13:01:20.130Z,4.23
2019-03-27T13:04:24.587Z,4.73
2019-03-27T13:07:29.112Z,4.33
2019-03-27T13:10:33.604Z,3.90
2019-03-27T13:13:38.166Z,3.40
2019-03-27T13:16:43.203Z,3.93
2019-03-27T13:19:47.612Z,4.10
2019-03-27T13:22:52.468Z,4.47
2019-03-27T13:25:56.864Z,3.67
2019-03-27T13:29:01.990Z,4.00
2019-03-27T13:32:07.153Z,3.80
2019-03-27T13:35:11.933Z,4.00
2019-03-27T13:38:16.841Z,3.83
2019-03-27T13:41:21.216Z,3.40
2019-03-27T13:44:36.374Z,2.90
2019-03-27T13:47:32.221Z,3.27
2019-03-27T13:50:37.070Z,3.83
2019-03-27T13:53:41.693Z,2.90
2019-03-27T13:56:46.427Z,2.90
2019-03-27T13:59:51.052Z,3.40
2019-03-27T14:02:55.814Z,3.00
2019-03-27T14:06:00.369Z,2.67
2019-03-27T14:09:07.698Z,2.93
2019-03-27T14:12:12.196Z,3.47
2019-03-27T14:15:17.421Z,3.20
2019-03-27T14:18:21.914Z,2.53
2019-03-27T14:21:26.641Z,3.07
2019-03-27T14:24:31.112Z,3.00
2019-03-27T14:27:36.052Z,2.77
2019-03-27T14:30:54.361Z,3.17
2019-03-27T14:33:58.830Z,3.67
2019-03-27T14:37:03.380Z,3.03
2019-03-27T14:40:08.993Z,4.30
2019-03-27T14:43:13.612Z,3.93
2019-03-27T14:46:17.971Z,4.37
2019-03-27T14:49:22.418Z,3.97
2019-03-27T14:52:26.999Z,4.00
2019-03-27T14:55:31.521Z,3.60
2019-03-27T14:58:36.141Z,3.40
2019-03-27T15:01:40.488Z,3.00
2019-03-27T15:04:44.822Z,3.50
2019-03-27T15:07:49.231Z,3.50
2019-03-27T15:10:53.797Z,3.67
2019-03-27T15:13:58.580Z,3.50
2019-03-27T15:17:02.997Z,3.10
2019-03-27T15:20:07.862Z,2.90
2019-03-27T15:23:12.381Z,3.17
2019-03-27T15:26:16.808Z,2.90
2019-03-27T15:29:21.608Z,2.83
2019-03-27T15:32:26.792Z,3.50
2019-03-27T15:35:31.172Z,2.47
2019-03-27T15:38:35.782Z,3.43
2019-03-27T15:41:40.451Z,3.03
2019-03-27T15:44:45.350Z,3.00
2019-03-27T15:47:50.286Z,2.90
2019-03-27T15:50:58.724Z,2.60
2019-03-27T15:54:01.211Z,3.07
2019-03-27T15:57:05.734Z,2.93
2019-03-27T16:00:10.230Z,2.67
2019-03-27T16:03:14.602Z,2.40
2019-03-27T16:06:19.027Z,2.63
2019-03-27T16:09:23.463Z,2.50
2019-03-27T16:12:27.770Z,2.93
2019-03-27T16:15:32.503Z,2.93
2019-03-27T16:18:37.024Z,2.53
2019-03-27T16:21:41.823Z,2.90
2019-03-27T16:24:46.245Z,2.93
2019-03-27T16:27:50.912Z,2.60
2019-03-27T16:30:55.678Z,2.50
2019-03-27T16:34:00.480Z,2.97
2019-03-27T16:37:04.898Z,2.43
2019-03-27T16:40:09.609Z,2.80
2019-03-27T16:43:14.651Z,2.60
2019-03-27T16:46:19.300Z,2.80
2019-03-27T16:49:24.850Z,2.73
2019-03-27T16:52:29.158Z,2.60
2019-03-27T16:55:33.603Z,2.97
2019-03-27T16:58:38.140Z,2.50
2019-03-27T17:01:42.837Z,2.80
2019-03-27T17:04:47.476Z,2.60
2019-03-27T17:07:51.924Z,2.67
2019-03-27T17:10:56.668Z,2.47
2019-03-27T17:14:01.183Z,2.80
2019-03-27T17:17:05.633Z,3.67
2019-03-27T17:20:10.476Z,3.87
2019-03-27T17:23:18.600Z,4.23
2019-03-27T17:26:22.280Z,4.20
2019-03-27T17:29:27.687Z,4.23
2019-03-27T17:32:32.154Z,3.97
2019-03-27T17:35:36.573Z,4.70
2019-03-27T17:38:41.303Z,4.50
2019-03-27T17:41:46.232Z,4.70
2019-03-27T17:44:52.173Z,4.20
2019-03-27T17:47:56.851Z,4.23
2019-03-27T17:51:01.504Z,3.80
2019-03-27T17:54:19.670Z,3.90
2019-03-27T17:57:12.021Z,4.50
2019-03-27T18:00:21.136Z,4.67
2019-03-27T18:03:25.714Z,4.90
2019-03-27T18:06:30.074Z,4.50
2019-03-27T18:09:34.512Z,4.87
2019-03-27T18:12:39.004Z,5.27
2019-03-27T18:15:43.452Z,5.90
2019-03-27T18:18:47.898Z,5.00
2019-03-27T18:22:06.785Z,5.93
2019-03-27T18:24:59.092Z,6.20
2019-03-27T18:28:03.639Z,5.93
2019-03-27T18:31:08.369Z,5.87
2019-03-27T18:34:12.838Z,5.43
2019-03-27T18:37:17.202Z,5.70
2019-03-27T18:40:21.602Z,5.13
2019-03-27T18:43:26.110Z,6.00
2019-03-27T18:46:30.445Z,6.17
2019-03-27T18:49:35.005Z,5.73
2019-03-27T18:52:39.444Z,5.77
2019-03-27T18:55:43.914Z,5.43
2019-03-27T18:58:49.114Z,5.67
2019-03-27T19:01:56.596Z,6.10
2019-03-27T19:05:02.122Z,6.20
2019-03-27T19:08:07.058Z,9.10
2019-03-27T19:11:12.046Z,8.67
2019-03-27T19:14:16.345Z,7.10
2019-03-27T19:17:21.181Z,7.47
2019-03-27T19:20:25.567Z,6.63
2019-03-27T19:23:29.990Z,6.70
2019-03-27T19:26:34.518Z,6.83
2019-03-27T19:29:39.215Z,7.23
2019-03-27T19:32:43.745Z,7.40
2019-03-27T19:35:48.488Z,8.20
2019-03-27T19:38:53.357Z,8.50
2019-03-27T19:41:57.878Z,6.50
2019-03-27T19:45:02.488Z,6.43
2019-03-27T19:48:07.291Z,6.60
2019-03-27T19:51:13.187Z,6.53
2019-03-27T19:54:26.890Z,6.37
2019-03-27T19:57:23.782Z,5.80
2019-03-27T20:00:28.492Z,5.80
2019-03-27T20:03:34.675Z,5.37
2019-03-27T20:06:39.276Z,5.37
2019-03-27T20:09:43.876Z,5.17
2019-03-27T20:12:49.024Z,5.83
2019-03-27T20:15:53.386Z,8.17
2019-03-27T20:18:57.885Z,8.27
2019-03-27T20:22:03.042Z,8.70
2019-03-27T20:25:08.641Z,9.17
2019-03-27T20:28:13.073Z,10.17
2019-03-27T20:31:17.621Z,10.17
2019-03-27T20:34:23.296Z,9.60
2019-03-27T20:37:27.993Z,8.67
2019-03-27T20:40:32.793Z,8.60
2019-03-27T20:43:37.445Z,7.97
2019-03-27T20:46:41.792Z,8.70
2019-03-27T20:49:46.222Z,8.30
2019-03-27T20:52:50.670Z,8.87
2019-03-27T20:55:55.006Z,8.50
2019-03-27T20:59:01.506Z,8.20
2019-03-27T21:02:06.058Z,7.83
2019-03-27T21:05:10.933Z,7.47
2019-03-27T21:08:15.436Z,7.53
2019-03-27T21:11:20.463Z,7.20
2019-03-27T21:14:24.965Z,7.23
2019-03-27T21:17:29.655Z,7.63
2019-03-27T21:20:34.465Z,7.43
2019-03-27T21:23:38.959Z,7.57
2019-03-27T21:26:43.706Z,7.50
2019-03-27T21:29:48.087Z,7.50
2019-03-27T21:32:52.571Z,6.80
2019-03-27T21:35:56.977Z,8.20
2019-03-27T21:39:01.347Z,7.70
2019-03-27T21:42:06.124Z,7.33
2019-03-27T21:45:11.444Z,7.37
2019-03-27T21:48:16.032Z,7.37
2019-03-27T21:51:20.590Z,6.63
2019-03-27T21:54:25.011Z,6.93
2019-03-27T21:57:29.570Z,7.67
2019-03-27T22:00:38.847Z,6.97
2019-03-27T22:03:43.395Z,7.30
2019-03-27T22:06:48.100Z,7.87
2019-03-27T22:09:52.473Z,7.10
2019-03-27T22:12:57.387Z,7.13
2019-03-27T22:16:01.963Z,6.93
2019-03-27T22:19:06.536Z,6.87
2019-03-27T22:22:10.923Z,6.73
2019-03-27T22:25:15.420Z,7.73
2019-03-27T22:28:19.983Z,7.17
2019-03-27T22:31:24.577Z,7.47
2019-03-27T22:34:28.895Z,7.00
2019-03-27T22:37:33.202Z,6.60
2019-03-27T22:40:37.741Z,6.57
2019-03-27T22:43:42.701Z,6.40
2019-03-27T22:46:47.125Z,6.10
2019-03-27T22:49:51.682Z,6.93
2019-03-27T22:52:56.012Z,6.77
2019-03-27T22:56:00.327Z,6.10
2019-03-27T22:59:04.754Z,6.23
2019-03-27T23:02:09.280Z,5.50
2019-03-27T23:05:13.974Z,5.87
2019-03-27T23:08:18.530Z,6.47
2019-03-27T23:11:22.911Z,6.70
2019-03-27T23:14:27.760Z,6.77
2019-03-27T23:17:32.445Z,7.43
2019-03-27T23:20:37.620Z,7.43
2019-03-27T23:23:42.134Z,6.97
2019-03-27T23:26:46.696Z,6.77
2019-03-27T23:29:51.157Z,6.67
2019-03-27T23:32:55.607Z,7.20
2019-03-27T23:36:00.543Z,8.47
2019-03-27T23:39:07.197Z,7.20
2019-03-27T23:42:16.180Z,7.53
2019-03-27T23:45:20.159Z,6.87
2019-03-27T23:48:25.646Z,7.53
2019-03-27T23:51:30.119Z,6.80
2019-03-27T23:54:35.099Z,7.47
2019-03-27T23:57:39.479Z,7.10
